sensor_id;sensor_type;location;lat;lon;timestamp;P1;durP1;ratioP1;P2;durP2;ratioP2
54599;SDS011;40500;51.084;16.958;2023-03-14T00:02:13;3.30;;;1.80;;
54599;SDS011;40500;51.084;16.958;2023-03-14T00:04:43;3.40;;;2.50;;
54599;SDS011;40500;51.084;16.958;2023-03-14T00:07:14;4.50;;;2.10;;
54599;SDS011;40500;51.084;16.958;2023-03-14T00:09:44;3.30;;;2.40;;
54599;SDS011;40500;51.084;16.958;2023-03-14T00:12:15;5.30;;;2.50;;
54599;SDS011;40500;51.084;16.958;2023-03-14T00:14:45;3.60;;;2.40;;
54599;SDS011;40500;51.084;16.958;2023-03-14T00:17:16;3.90;;;2.40;;
54599;SDS011;40500;51.084;16.958;2023-03-14T00:19:53;5.30;;;3.00;;
54599;SDS011;40500;51.084;16.958;2023-03-14T00:22:26;5.70;;;2.30;;
54599;SDS011;40500;51.084;16.958;2023-03-14T00:24:57;4.60;;;2.30;;
54599;SDS011;40500;51.084;16.958;2023-03-14T00:27:28;5.70;;;2.30;;
54599;SDS011;40500;51.084;16.958;2023-03-14T00:29:59;4.60;;;2.30;;
54599;SDS011;40500;51.084;16.958;2023-03-14T00:32:30;3.10;;;2.30;;
54599;SDS011;40500;51.084;16.958;2023-03-14T00:35:03;2.30;;;1.90;;
54599;SDS011;40500;51.084;16.958;2023-03-14T00:37:34;3.40;;;2.10;;
54599;SDS011;40500;51.084;16.958;2023-03-14T00:40:07;2.30;;;1.90;;
54599;SDS011;40500;51.084;16.958;2023-03-14T00:42:38;6.00;;;2.40;;
54599;SDS011;40500;51.084;16.958;2023-03-14T00:45:10;5.00;;;2.20;;
54599;SDS011;40500;51.084;16.958;2023-03-14T00:47:40;2.90;;;1.80;;
54599;SDS011;40500;51.084;16.958;2023-03-14T00:50:13;2.80;;;2.10;;
54599;SDS011;40500;51.084;16.958;2023-03-14T00:52:46;2.60;;;2.00;;
54599;SDS011;40500;51.084;16.958;2023-03-14T00:55:17;3.20;;;2.50;;
54599;SDS011;40500;51.084;16.958;2023-03-14T00:57:48;5.00;;;3.00;;
54599;SDS011;40500;51.084;16.958;2023-03-14T01:00:18;4.90;;;2.50;;
54599;SDS011;40500;51.084;16.958;2023-03-14T01:02:49;4.70;;;2.50;;
54599;SDS011;40500;51.084;16.958;2023-03-14T01:05:19;3.60;;;2.50;;
54599;SDS011;40500;51.084;16.958;2023-03-14T01:07:51;3.30;;;2.10;;
54599;SDS011;40500;51.084;16.958;2023-03-14T01:10:22;2.70;;;2.00;;
54599;SDS011;40500;51.084;16.958;2023-03-14T01:12:53;6.70;;;2.60;;
54599;SDS011;40500;51.084;16.958;2023-03-14T01:15:23;3.30;;;2.50;;
54599;SDS011;40500;51.084;16.958;2023-03-14T01:17:53;3.30;;;2.30;;
54599;SDS011;40500;51.084;16.958;2023-03-14T01:20:24;3.60;;;2.50;;
54599;SDS011;40500;51.084;16.958;2023-03-14T01:22:55;3.50;;;2.50;;
54599;SDS011;40500;51.084;16.958;2023-03-14T01:25:27;4.70;;;3.00;;
54599;SDS011;40500;51.084;16.958;2023-03-14T01:27:57;4.20;;;2.40;;
54599;SDS011;40500;51.084;16.958;2023-03-14T01:30:29;3.70;;;2.40;;
54599;SDS011;40500;51.084;16.958;2023-03-14T01:33:00;4.10;;;2.20;;
54599;SDS011;40500;51.084;16.958;2023-03-14T01:35:30;5.60;;;2.10;;
54599;SDS011;40500;51.084;16.958;2023-03-14T01:38:01;3.70;;;2.30;;
54599;SDS011;40500;51.084;16.958;2023-03-14T01:40:32;3.70;;;2.10;;
54599;SDS011;40500;51.084;16.958;2023-03-14T01:43:12;3.40;;;2.40;;
54599;SDS011;40500;51.084;16.958;2023-03-14T01:48:51;3.00;;;2.30;;
54599;SDS011;40500;51.084;16.958;2023-03-14T01:51:31;2.70;;;1.70;;
54599;SDS011;40500;51.084;16.958;2023-03-14T01:54:09;2.40;;;1.90;;
54599;SDS011;40500;51.084;16.958;2023-03-14T01:56:45;2.40;;;1.90;;
54599;SDS011;40500;51.084;16.958;2023-03-14T01:59:19;3.20;;;1.90;;
54599;SDS011;40500;51.084;16.958;2023-03-14T02:01:50;5.30;;;2.50;;
54599;SDS011;40500;51.084;16.958;2023-03-14T02:04:23;4.80;;;2.20;;
54599;SDS011;40500;51.084;16.958;2023-03-14T02:06:59;3.80;;;2.40;;
54599;SDS011;40500;51.084;16.958;2023-03-14T02:09:38;3.00;;;2.00;;
54599;SDS011;40500;51.084;16.958;2023-03-14T02:12:17;3.70;;;2.80;;
54599;SDS011;40500;51.084;16.958;2023-03-14T02:15:10;2.20;;;1.70;;
54599;SDS011;40500;51.084;16.958;2023-03-14T02:17:53;4.20;;;2.50;;
54599;SDS011;40500;51.084;16.958;2023-03-14T02:20:48;2.20;;;1.70;;
54599;SDS011;40500;51.084;16.958;2023-03-14T02:23:31;3.30;;;2.30;;
54599;SDS011;40500;51.084;16.958;2023-03-14T02:26:10;4.50;;;2.20;;
54599;SDS011;40500;51.084;16.958;2023-03-14T02:28:47;2.50;;;2.00;;
54599;SDS011;40500;51.084;16.958;2023-03-14T02:31:17;3.40;;;2.50;;
54599;SDS011;40500;51.084;16.958;2023-03-14T02:33:49;4.40;;;2.60;;
54599;SDS011;40500;51.084;16.958;2023-03-14T02:36:24;4.50;;;2.60;;
54599;SDS011;40500;51.084;16.958;2023-03-14T02:38:58;2.90;;;2.40;;
54599;SDS011;40500;51.084;16.958;2023-03-14T02:41:39;3.70;;;2.20;;
54599;SDS011;40500;51.084;16.958;2023-03-14T02:44:13;2.70;;;2.20;;
54599;SDS011;40500;51.084;16.958;2023-03-14T02:46:44;2.90;;;2.00;;
54599;SDS011;40500;51.084;16.958;2023-03-14T02:49:15;3.80;;;2.50;;
54599;SDS011;40500;51.084;16.958;2023-03-14T02:51:48;2.50;;;1.70;;
54599;SDS011;40500;51.084;16.958;2023-03-14T02:54:19;3.00;;;2.40;;
54599;SDS011;40500;51.084;16.958;2023-03-14T02:56:51;3.90;;;2.50;;
54599;SDS011;40500;51.084;16.958;2023-03-14T02:59:29;4.10;;;2.10;;
54599;SDS011;40500;51.084;16.958;2023-03-14T03:02:07;3.80;;;2.10;;
54599;SDS011;40500;51.084;16.958;2023-03-14T03:04:39;2.50;;;2.00;;
54599;SDS011;40500;51.084;16.958;2023-03-14T03:07:09;3.40;;;2.10;;
54599;SDS011;40500;51.084;16.958;2023-03-14T03:09:40;3.60;;;2.10;;
54599;SDS011;40500;51.084;16.958;2023-03-14T03:12:10;6.60;;;2.30;;
54599;SDS011;40500;51.084;16.958;2023-03-14T03:14:41;5.00;;;2.20;;
54599;SDS011;40500;51.084;16.958;2023-03-14T03:17:12;3.60;;;2.10;;
54599;SDS011;40500;51.084;16.958;2023-03-14T03:19:42;3.40;;;2.30;;
54599;SDS011;40500;51.084;16.958;2023-03-14T03:22:13;4.50;;;2.20;;
54599;SDS011;40500;51.084;16.958;2023-03-14T03:24:44;5.60;;;2.80;;
54599;SDS011;40500;51.084;16.958;2023-03-14T03:27:14;3.90;;;2.20;;
54599;SDS011;40500;51.084;16.958;2023-03-14T03:29:45;3.20;;;2.50;;
54599;SDS011;40500;51.084;16.958;2023-03-14T03:32:16;3.10;;;2.30;;
54599;SDS011;40500;51.084;16.958;2023-03-14T03:34:47;4.90;;;2.20;;
54599;SDS011;40500;51.084;16.958;2023-03-14T03:37:17;2.20;;;2.00;;
54599;SDS011;40500;51.084;16.958;2023-03-14T03:39:49;2.70;;;1.80;;
54599;SDS011;40500;51.084;16.958;2023-03-14T03:42:20;3.10;;;2.30;;
54599;SDS011;40500;51.084;16.958;2023-03-14T03:44:50;6.10;;;2.10;;
54599;SDS011;40500;51.084;16.958;2023-03-14T03:47:21;5.30;;;2.30;;
54599;SDS011;40500;51.084;16.958;2023-03-14T03:49:52;4.00;;;2.20;;
54599;SDS011;40500;51.084;16.958;2023-03-14T03:52:22;4.30;;;2.50;;
54599;SDS011;40500;51.084;16.958;2023-03-14T03:54:53;3.60;;;2.30;;
54599;SDS011;40500;51.084;16.958;2023-03-14T03:57:23;2.50;;;1.60;;
54599;SDS011;40500;51.084;16.958;2023-03-14T03:59:54;3.50;;;1.60;;
54599;SDS011;40500;51.084;16.958;2023-03-14T04:02:24;2.80;;;1.90;;
54599;SDS011;40500;51.084;16.958;2023-03-14T04:04:56;2.30;;;2.10;;
54599;SDS011;40500;51.084;16.958;2023-03-14T04:07:27;5.50;;;2.20;;
54599;SDS011;40500;51.084;16.958;2023-03-14T04:10:00;2.40;;;2.00;;
54599;SDS011;40500;51.084;16.958;2023-03-14T04:12:36;2.80;;;1.80;;
54599;SDS011;40500;51.084;16.958;2023-03-14T04:15:15;3.20;;;2.10;;
54599;SDS011;40500;51.084;16.958;2023-03-14T04:17:48;3.60;;;1.90;;
54599;SDS011;40500;51.084;16.958;2023-03-14T04:20:19;4.10;;;1.80;;
54599;SDS011;40500;51.084;16.958;2023-03-14T04:22:49;3.90;;;2.20;;
54599;SDS011;40500;51.084;16.958;2023-03-14T04:25:21;2.80;;;2.20;;
54599;SDS011;40500;51.084;16.958;2023-03-14T04:27:55;3.20;;;2.20;;
54599;SDS011;40500;51.084;16.958;2023-03-14T04:30:29;1.80;;;1.70;;
54599;SDS011;40500;51.084;16.958;2023-03-14T04:33:06;4.10;;;2.50;;
54599;SDS011;40500;51.084;16.958;2023-03-14T04:35:41;3.90;;;2.40;;
54599;SDS011;40500;51.084;16.958;2023-03-14T04:38:14;2.50;;;2.10;;
54599;SDS011;40500;51.084;16.958;2023-03-14T04:40:46;2.70;;;1.70;;
54599;SDS011;40500;51.084;16.958;2023-03-14T04:43:18;3.80;;;1.90;;
54599;SDS011;40500;51.084;16.958;2023-03-14T04:45:54;2.80;;;2.00;;
54599;SDS011;40500;51.084;16.958;2023-03-14T04:48:26;3.00;;;1.80;;
54599;SDS011;40500;51.084;16.958;2023-03-14T04:50:57;6.00;;;2.50;;
54599;SDS011;40500;51.084;16.958;2023-03-14T04:53:32;4.70;;;2.00;;
54599;SDS011;40500;51.084;16.958;2023-03-14T04:56:07;2.30;;;1.90;;
54599;SDS011;40500;51.084;16.958;2023-03-14T04:58:42;2.20;;;1.70;;
54599;SDS011;40500;51.084;16.958;2023-03-14T05:01:16;2.20;;;1.70;;
54599;SDS011;40500;51.084;16.958;2023-03-14T05:04:05;2.10;;;1.70;;
54599;SDS011;40500;51.084;16.958;2023-03-14T05:07:11;6.20;;;2.60;;
54599;SDS011;40500;51.084;16.958;2023-03-14T05:10:14;6.20;;;2.30;;
54599;SDS011;40500;51.084;16.958;2023-03-14T05:13:04;3.30;;;2.00;;
54599;SDS011;40500;51.084;16.958;2023-03-14T05:16:06;2.20;;;1.90;;
54599;SDS011;40500;51.084;16.958;2023-03-14T05:18:51;3.90;;;2.40;;
54599;SDS011;40500;51.084;16.958;2023-03-14T05:21:37;3.60;;;2.20;;
54599;SDS011;40500;51.084;16.958;2023-03-14T05:24:27;3.70;;;2.10;;
54599;SDS011;40500;51.084;16.958;2023-03-14T05:27:00;2.80;;;2.00;;
54599;SDS011;40500;51.084;16.958;2023-03-14T05:29:50;2.80;;;2.30;;
54599;SDS011;40500;51.084;16.958;2023-03-14T05:32:35;5.90;;;2.00;;
54599;SDS011;40500;51.084;16.958;2023-03-14T05:35:29;3.50;;;2.10;;
54599;SDS011;40500;51.084;16.958;2023-03-14T05:38:18;5.60;;;2.60;;
54599;SDS011;40500;51.084;16.958;2023-03-14T05:41:15;5.20;;;2.10;;
54599;SDS011;40500;51.084;16.958;2023-03-14T05:44:04;4.70;;;2.60;;
54599;SDS011;40500;51.084;16.958;2023-03-14T05:46:42;3.00;;;2.40;;
54599;SDS011;40500;51.084;16.958;2023-03-14T05:49:33;3.40;;;2.20;;
54599;SDS011;40500;51.084;16.958;2023-03-14T05:52:14;5.10;;;2.60;;
54599;SDS011;40500;51.084;16.958;2023-03-14T05:55:09;3.60;;;2.00;;
54599;SDS011;40500;51.084;16.958;2023-03-14T05:58:01;4.10;;;2.00;;
54599;SDS011;40500;51.084;16.958;2023-03-14T06:01:06;4.70;;;2.30;;
54599;SDS011;40500;51.084;16.958;2023-03-14T06:03:44;5.70;;;2.40;;
54599;SDS011;40500;51.084;16.958;2023-03-14T06:06:15;4.30;;;2.40;;
54599;SDS011;40500;51.084;16.958;2023-03-14T06:08:45;4.20;;;2.40;;
54599;SDS011;40500;51.084;16.958;2023-03-14T06:11:18;3.90;;;2.50;;
54599;SDS011;40500;51.084;16.958;2023-03-14T06:13:48;4.00;;;2.70;;
54599;SDS011;40500;51.084;16.958;2023-03-14T06:16:19;3.00;;;2.50;;
54599;SDS011;40500;51.084;16.958;2023-03-14T06:18:52;2.30;;;2.00;;
54599;SDS011;40500;51.084;16.958;2023-03-14T06:21:23;3.50;;;1.60;;
54599;SDS011;40500;51.084;16.958;2023-03-14T06:23:54;2.90;;;2.20;;
54599;SDS011;40500;51.084;16.958;2023-03-14T06:26:29;3.20;;;2.20;;
54599;SDS011;40500;51.084;16.958;2023-03-14T06:28:59;4.40;;;2.40;;
54599;SDS011;40500;51.084;16.958;2023-03-14T06:31:32;3.80;;;2.10;;
54599;SDS011;40500;51.084;16.958;2023-03-14T06:34:06;2.60;;;2.10;;
54599;SDS011;40500;51.084;16.958;2023-03-14T06:36:41;3.00;;;2.20;;
54599;SDS011;40500;51.084;16.958;2023-03-14T06:39:13;2.30;;;2.10;;
54599;SDS011;40500;51.084;16.958;2023-03-14T06:41:46;5.10;;;2.50;;
54599;SDS011;40500;51.084;16.958;2023-03-14T06:44:18;3.00;;;2.30;;
54599;SDS011;40500;51.084;16.958;2023-03-14T06:46:50;2.30;;;1.70;;
54599;SDS011;40500;51.084;16.958;2023-03-14T06:49:21;4.60;;;2.10;;
54599;SDS011;40500;51.084;16.958;2023-03-14T06:51:54;2.50;;;2.00;;
54599;SDS011;40500;51.084;16.958;2023-03-14T06:54:24;2.70;;;1.60;;
54599;SDS011;40500;51.084;16.958;2023-03-14T06:56:55;4.60;;;2.40;;
54599;SDS011;40500;51.084;16.958;2023-03-14T06:59:26;3.90;;;2.10;;
54599;SDS011;40500;51.084;16.958;2023-03-14T07:01:58;3.40;;;2.40;;
54599;SDS011;40500;51.084;16.958;2023-03-14T07:04:29;3.10;;;2.00;;
54599;SDS011;40500;51.084;16.958;2023-03-14T07:07:00;3.30;;;2.40;;
54599;SDS011;40500;51.084;16.958;2023-03-14T07:09:33;4.70;;;2.40;;
54599;SDS011;40500;51.084;16.958;2023-03-14T07:12:05;4.00;;;2.60;;
54599;SDS011;40500;51.084;16.958;2023-03-14T07:14:35;4.90;;;2.50;;
54599;SDS011;40500;51.084;16.958;2023-03-14T07:17:06;5.90;;;2.40;;
54599;SDS011;40500;51.084;16.958;2023-03-14T07:19:36;6.00;;;2.50;;
54599;SDS011;40500;51.084;16.958;2023-03-14T07:22:08;3.80;;;2.20;;
54599;SDS011;40500;51.084;16.958;2023-03-14T07:24:38;4.50;;;2.00;;
54599;SDS011;40500;51.084;16.958;2023-03-14T07:27:10;4.20;;;1.90;;
54599;SDS011;40500;51.084;16.958;2023-03-14T07:29:41;4.60;;;2.50;;
54599;SDS011;40500;51.084;16.958;2023-03-14T07:32:12;3.60;;;2.70;;
54599;SDS011;40500;51.084;16.958;2023-03-14T07:34:43;4.80;;;2.50;;
54599;SDS011;40500;51.084;16.958;2023-03-14T07:37:14;5.40;;;3.00;;
54599;SDS011;40500;51.084;16.958;2023-03-14T07:39:45;3.10;;;2.40;;
54599;SDS011;40500;51.084;16.958;2023-03-14T07:42:20;5.30;;;2.50;;
54599;SDS011;40500;51.084;16.958;2023-03-14T07:45:10;4.20;;;1.80;;
54599;SDS011;40500;51.084;16.958;2023-03-14T07:47:41;6.20;;;2.30;;
54599;SDS011;40500;51.084;16.958;2023-03-14T07:50:11;4.30;;;2.30;;
54599;SDS011;40500;51.084;16.958;2023-03-14T07:52:42;3.30;;;2.20;;
54599;SDS011;40500;51.084;16.958;2023-03-14T07:55:12;3.20;;;2.00;;
54599;SDS011;40500;51.084;16.958;2023-03-14T07:57:44;2.70;;;2.00;;
54599;SDS011;40500;51.084;16.958;2023-03-14T08:00:15;2.70;;;1.90;;
54599;SDS011;40500;51.084;16.958;2023-03-14T08:02:46;4.20;;;2.10;;
54599;SDS011;40500;51.084;16.958;2023-03-14T08:05:17;3.90;;;2.30;;
54599;SDS011;40500;51.084;16.958;2023-03-14T08:07:48;4.90;;;2.70;;
54599;SDS011;40500;51.084;16.958;2023-03-14T08:10:19;4.30;;;2.40;;
54599;SDS011;40500;51.084;16.958;2023-03-14T08:12:49;5.50;;;2.70;;
54599;SDS011;40500;51.084;16.958;2023-03-14T08:15:24;6.80;;;2.80;;
54599;SDS011;40500;51.084;16.958;2023-03-14T08:17:55;3.10;;;2.20;;
54599;SDS011;40500;51.084;16.958;2023-03-14T08:20:26;4.40;;;2.70;;
54599;SDS011;40500;51.084;16.958;2023-03-14T08:22:58;3.60;;;2.40;;
54599;SDS011;40500;51.084;16.958;2023-03-14T08:25:29;3.60;;;2.40;;
54599;SDS011;40500;51.084;16.958;2023-03-14T08:28:02;6.70;;;2.10;;
54599;SDS011;40500;51.084;16.958;2023-03-14T08:30:34;4.70;;;2.80;;
54599;SDS011;40500;51.084;16.958;2023-03-14T08:33:04;5.00;;;2.70;;
54599;SDS011;40500;51.084;16.958;2023-03-14T08:35:36;5.70;;;2.50;;
54599;SDS011;40500;51.084;16.958;2023-03-14T08:38:07;3.20;;;2.20;;
54599;SDS011;40500;51.084;16.958;2023-03-14T08:40:38;3.70;;;2.50;;
54599;SDS011;40500;51.084;16.958;2023-03-14T08:43:08;4.00;;;2.10;;
54599;SDS011;40500;51.084;16.958;2023-03-14T08:45:39;4.00;;;2.40;;
54599;SDS011;40500;51.084;16.958;2023-03-14T08:48:09;3.10;;;2.00;;
54599;SDS011;40500;51.084;16.958;2023-03-14T08:50:41;2.60;;;2.10;;
54599;SDS011;40500;51.084;16.958;2023-03-14T08:53:11;3.40;;;1.90;;
54599;SDS011;40500;51.084;16.958;2023-03-14T08:55:41;4.90;;;2.10;;
54599;SDS011;40500;51.084;16.958;2023-03-14T08:58:13;2.90;;;2.20;;
54599;SDS011;40500;51.084;16.958;2023-03-14T09:00:44;3.00;;;2.00;;
54599;SDS011;40500;51.084;16.958;2023-03-14T09:03:14;3.10;;;1.90;;
54599;SDS011;40500;51.084;16.958;2023-03-14T09:05:45;4.50;;;2.10;;
54599;SDS011;40500;51.084;16.958;2023-03-14T09:08:15;4.90;;;1.90;;
54599;SDS011;40500;51.084;16.958;2023-03-14T09:10:46;2.50;;;2.10;;
54599;SDS011;40500;51.084;16.958;2023-03-14T09:13:16;3.20;;;2.60;;
54599;SDS011;40500;51.084;16.958;2023-03-14T09:15:51;3.50;;;2.40;;
54599;SDS011;40500;51.084;16.958;2023-03-14T09:18:29;4.30;;;2.50;;
54599;SDS011;40500;51.084;16.958;2023-03-14T09:21:01;3.70;;;2.40;;
54599;SDS011;40500;51.084;16.958;2023-03-14T09:23:34;4.60;;;2.30;;
54599;SDS011;40500;51.084;16.958;2023-03-14T09:26:05;5.20;;;2.50;;
54599;SDS011;40500;51.084;16.958;2023-03-14T09:28:37;3.00;;;2.20;;
54599;SDS011;40500;51.084;16.958;2023-03-14T09:31:10;3.70;;;2.30;;
54599;SDS011;40500;51.084;16.958;2023-03-14T09:33:42;5.20;;;2.50;;
54599;SDS011;40500;51.084;16.958;2023-03-14T09:36:12;3.50;;;2.60;;
54599;SDS011;40500;51.084;16.958;2023-03-14T09:38:43;7.70;;;2.20;;
54599;SDS011;40500;51.084;16.958;2023-03-14T09:41:16;4.20;;;2.90;;
54599;SDS011;40500;51.084;16.958;2023-03-14T09:43:50;4.90;;;2.70;;
54599;SDS011;40500;51.084;16.958;2023-03-14T09:46:29;4.60;;;2.80;;
54599;SDS011;40500;51.084;16.958;2023-03-14T09:49:04;3.40;;;2.30;;
54599;SDS011;40500;51.084;16.958;2023-03-14T09:51:45;3.90;;;2.40;;
54599;SDS011;40500;51.084;16.958;2023-03-14T09:54:23;3.30;;;2.20;;
54599;SDS011;40500;51.084;16.958;2023-03-14T09:56:59;3.80;;;2.30;;
54599;SDS011;40500;51.084;16.958;2023-03-14T09:59:34;3.60;;;2.30;;
54599;SDS011;40500;51.084;16.958;2023-03-14T10:02:13;7.40;;;3.00;;
54599;SDS011;40500;51.084;16.958;2023-03-14T10:04:47;4.70;;;2.90;;
54599;SDS011;40500;51.084;16.958;2023-03-14T10:07:21;6.20;;;2.80;;
54599;SDS011;40500;51.084;16.958;2023-03-14T10:09:56;6.40;;;3.10;;
54599;SDS011;40500;51.084;16.958;2023-03-14T10:12:33;4.10;;;2.50;;
54599;SDS011;40500;51.084;16.958;2023-03-14T10:15:08;3.20;;;2.60;;
54599;SDS011;40500;51.084;16.958;2023-03-14T10:17:43;3.60;;;2.60;;
54599;SDS011;40500;51.084;16.958;2023-03-14T10:20:26;7.30;;;2.70;;
54599;SDS011;40500;51.084;16.958;2023-03-14T10:23:01;5.80;;;2.10;;
54599;SDS011;40500;51.084;16.958;2023-03-14T10:25:35;2.90;;;2.10;;
54599;SDS011;40500;51.084;16.958;2023-03-14T10:28:10;3.90;;;2.20;;
54599;SDS011;40500;51.084;16.958;2023-03-14T10:30:54;2.90;;;2.00;;
54599;SDS011;40500;51.084;16.958;2023-03-14T10:33:26;5.40;;;2.40;;
54599;SDS011;40500;51.084;16.958;2023-03-14T10:35:58;3.20;;;2.40;;
54599;SDS011;40500;51.084;16.958;2023-03-14T10:38:31;5.80;;;2.50;;
54599;SDS011;40500;51.084;16.958;2023-03-14T10:41:02;4.30;;;2.30;;
54599;SDS011;40500;51.084;16.958;2023-03-14T10:43:44;4.40;;;2.40;;
54599;SDS011;40500;51.084;16.958;2023-03-14T10:46:18;3.60;;;2.10;;
54599;SDS011;40500;51.084;16.958;2023-03-14T10:49:16;3.90;;;2.30;;
54599;SDS011;40500;51.084;16.958;2023-03-14T10:51:58;2.40;;;1.80;;
54599;SDS011;40500;51.084;16.958;2023-03-14T10:54:41;3.70;;;2.00;;
54599;SDS011;40500;51.084;16.958;2023-03-14T10:57:18;3.70;;;2.30;;
54599;SDS011;40500;51.084;16.958;2023-03-14T10:59:49;3.60;;;2.30;;
54599;SDS011;40500;51.084;16.958;2023-03-14T11:02:31;3.30;;;1.80;;
54599;SDS011;40500;51.084;16.958;2023-03-14T11:05:14;5.20;;;2.20;;
54599;SDS011;40500;51.084;16.958;2023-03-14T11:07:51;3.90;;;1.80;;
54599;SDS011;40500;51.084;16.958;2023-03-14T11:10:26;4.10;;;1.70;;
54599;SDS011;40500;51.084;16.958;2023-03-14T11:13:06;3.50;;;2.10;;
54599;SDS011;40500;51.084;16.958;2023-03-14T11:15:45;2.80;;;1.90;;
54599;SDS011;40500;51.084;16.958;2023-03-14T11:18:30;3.00;;;2.00;;
54599;SDS011;40500;51.084;16.958;2023-03-14T11:21:15;3.50;;;1.80;;
54599;SDS011;40500;51.084;16.958;2023-03-14T11:23:53;2.30;;;1.60;;
54599;SDS011;40500;51.084;16.958;2023-03-14T11:26:35;3.30;;;1.90;;
54599;SDS011;40500;51.084;16.958;2023-03-14T11:31:48;4.90;;;1.90;;
54599;SDS011;40500;51.084;16.958;2023-03-14T11:34:24;3.50;;;2.00;;
54599;SDS011;40500;51.084;16.958;2023-03-14T11:36:59;5.50;;;2.20;;
54599;SDS011;40500;51.084;16.958;2023-03-14T11:39:35;3.80;;;2.20;;
54599;SDS011;40500;51.084;16.958;2023-03-14T11:42:11;2.70;;;1.90;;
54599;SDS011;40500;51.084;16.958;2023-03-14T11:44:44;5.10;;;1.80;;
54599;SDS011;40500;51.084;16.958;2023-03-14T11:47:18;4.70;;;2.30;;
54599;SDS011;40500;51.084;16.958;2023-03-14T11:49:58;2.90;;;1.80;;
54599;SDS011;40500;51.084;16.958;2023-03-14T11:52:43;3.90;;;2.10;;
54599;SDS011;40500;51.084;16.958;2023-03-14T11:55:20;4.80;;;1.90;;
54599;SDS011;40500;51.084;16.958;2023-03-14T11:58:00;3.50;;;1.80;;
54599;SDS011;40500;51.084;16.958;2023-03-14T12:00:40;2.80;;;1.70;;
54599;SDS011;40500;51.084;16.958;2023-03-14T12:03:14;2.50;;;1.70;;
54599;SDS011;40500;51.084;16.958;2023-03-14T12:05:57;3.90;;;1.60;;
54599;SDS011;40500;51.084;16.958;2023-03-14T12:08:44;6.90;;;1.80;;
54599;SDS011;40500;51.084;16.958;2023-03-14T12:11:24;3.90;;;1.90;;
54599;SDS011;40500;51.084;16.958;2023-03-14T12:14:15;3.90;;;1.80;;
54599;SDS011;40500;51.084;16.958;2023-03-14T12:17:05;3.60;;;2.20;;
54599;SDS011;40500;51.084;16.958;2023-03-14T12:20:00;5.20;;;2.20;;
54599;SDS011;40500;51.084;16.958;2023-03-14T12:22:36;4.70;;;2.20;;
54599;SDS011;40500;51.084;16.958;2023-03-14T12:25:17;3.30;;;2.10;;
54599;SDS011;40500;51.084;16.958;2023-03-14T12:30:57;3.10;;;1.90;;
54599;SDS011;40500;51.084;16.958;2023-03-14T12:37:11;7.00;;;2.70;;
54599;SDS011;40500;51.084;16.958;2023-03-14T12:40:05;3.70;;;2.80;;
54599;SDS011;40500;51.084;16.958;2023-03-14T12:42:53;4.20;;;2.60;;
54599;SDS011;40500;51.084;16.958;2023-03-14T12:45:35;3.40;;;2.70;;
54599;SDS011;40500;51.084;16.958;2023-03-14T12:48:24;6.40;;;2.60;;
54599;SDS011;40500;51.084;16.958;2023-03-14T12:51:01;5.40;;;2.60;;
54599;SDS011;40500;51.084;16.958;2023-03-14T12:53:51;7.80;;;2.80;;
54599;SDS011;40500;51.084;16.958;2023-03-14T12:56:48;3.50;;;2.60;;
54599;SDS011;40500;51.084;16.958;2023-03-14T12:59:29;4.80;;;2.20;;
54599;SDS011;40500;51.084;16.958;2023-03-14T13:02:17;4.90;;;2.50;;
54599;SDS011;40500;51.084;16.958;2023-03-14T13:05:11;4.20;;;2.50;;
54599;SDS011;40500;51.084;16.958;2023-03-14T13:08:03;5.60;;;3.00;;
54599;SDS011;40500;51.084;16.958;2023-03-14T13:10:41;3.70;;;2.60;;
54599;SDS011;40500;51.084;16.958;2023-03-14T13:13:25;6.00;;;3.10;;
54599;SDS011;40500;51.084;16.958;2023-03-14T13:15:58;5.90;;;3.30;;
54599;SDS011;40500;51.084;16.958;2023-03-14T13:18:36;7.00;;;3.70;;
54599;SDS011;40500;51.084;16.958;2023-03-14T13:21:10;13.90;;;4.90;;
54599;SDS011;40500;51.084;16.958;2023-03-14T13:23:55;7.30;;;3.80;;
54599;SDS011;40500;51.084;16.958;2023-03-14T13:26:36;6.00;;;2.90;;
54599;SDS011;40500;51.084;16.958;2023-03-14T13:29:11;2.80;;;2.40;;
54599;SDS011;40500;51.084;16.958;2023-03-14T13:31:48;5.00;;;3.20;;
54599;SDS011;40500;51.084;16.958;2023-03-14T13:34:21;4.60;;;2.60;;
54599;SDS011;40500;51.084;16.958;2023-03-14T13:36:53;3.10;;;2.30;;
54599;SDS011;40500;51.084;16.958;2023-03-14T13:39:26;4.60;;;2.60;;
54599;SDS011;40500;51.084;16.958;2023-03-14T13:41:59;4.50;;;2.90;;
54599;SDS011;40500;51.084;16.958;2023-03-14T13:44:30;3.80;;;2.50;;
54599;SDS011;40500;51.084;16.958;2023-03-14T13:47:05;5.50;;;2.70;;
54599;SDS011;40500;51.084;16.958;2023-03-14T13:49:40;5.90;;;2.80;;
54599;SDS011;40500;51.084;16.958;2023-03-14T13:52:27;4.40;;;2.60;;
54599;SDS011;40500;51.084;16.958;2023-03-14T13:57:43;4.20;;;2.30;;
54599;SDS011;40500;51.084;16.958;2023-03-14T14:00:19;3.30;;;2.50;;
54599;SDS011;40500;51.084;16.958;2023-03-14T14:02:54;4.40;;;2.70;;
54599;SDS011;40500;51.084;16.958;2023-03-14T14:05:27;3.90;;;2.70;;
54599;SDS011;40500;51.084;16.958;2023-03-14T14:07:59;4.40;;;2.80;;
54599;SDS011;40500;51.084;16.958;2023-03-14T14:10:35;3.60;;;2.40;;
54599;SDS011;40500;51.084;16.958;2023-03-14T14:13:08;3.50;;;2.60;;
54599;SDS011;40500;51.084;16.958;2023-03-14T14:15:44;7.00;;;3.00;;
54599;SDS011;40500;51.084;16.958;2023-03-14T14:18:18;6.50;;;3.00;;
54599;SDS011;40500;51.084;16.958;2023-03-14T14:20:53;4.50;;;2.60;;
54599;SDS011;40500;51.084;16.958;2023-03-14T14:23:26;3.20;;;2.30;;
54599;SDS011;40500;51.084;16.958;2023-03-14T14:25:59;5.00;;;3.10;;
54599;SDS011;40500;51.084;16.958;2023-03-14T14:28:30;4.50;;;2.60;;
54599;SDS011;40500;51.084;16.958;2023-03-14T14:31:16;4.80;;;2.20;;
54599;SDS011;40500;51.084;16.958;2023-03-14T14:33:56;2.80;;;2.00;;
54599;SDS011;40500;51.084;16.958;2023-03-14T14:36:28;4.20;;;2.70;;
54599;SDS011;40500;51.084;16.958;2023-03-14T14:39:03;3.70;;;2.70;;
54599;SDS011;40500;51.084;16.958;2023-03-14T14:41:40;6.00;;;2.80;;
54599;SDS011;40500;51.084;16.958;2023-03-14T14:44:12;5.20;;;2.80;;
54599;SDS011;40500;51.084;16.958;2023-03-14T14:46:46;4.50;;;3.30;;
54599;SDS011;40500;51.084;16.958;2023-03-14T14:49:19;4.10;;;2.60;;
54599;SDS011;40500;51.084;16.958;2023-03-14T14:52:00;4.90;;;2.70;;
54599;SDS011;40500;51.084;16.958;2023-03-14T14:54:37;3.70;;;2.50;;
54599;SDS011;40500;51.084;16.958;2023-03-14T14:57:17;4.90;;;2.80;;
54599;SDS011;40500;51.084;16.958;2023-03-14T14:59:50;4.00;;;2.70;;
54599;SDS011;40500;51.084;16.958;2023-03-14T15:02:31;4.10;;;2.70;;
54599;SDS011;40500;51.084;16.958;2023-03-14T15:05:13;4.60;;;2.90;;
54599;SDS011;40500;51.084;16.958;2023-03-14T15:07:47;5.80;;;3.10;;
54599;SDS011;40500;51.084;16.958;2023-03-14T15:10:20;6.40;;;3.20;;
54599;SDS011;40500;51.084;16.958;2023-03-14T15:12:56;10.30;;;3.20;;
54599;SDS011;40500;51.084;16.958;2023-03-14T15:15:27;5.20;;;3.20;;
54599;SDS011;40500;51.084;16.958;2023-03-14T15:17:59;4.50;;;2.80;;
54599;SDS011;40500;51.084;16.958;2023-03-14T15:20:30;3.00;;;2.10;;
54599;SDS011;40500;51.084;16.958;2023-03-14T15:23:00;4.00;;;2.40;;
54599;SDS011;40500;51.084;16.958;2023-03-14T15:25:31;3.50;;;1.60;;
54599;SDS011;40500;51.084;16.958;2023-03-14T15:28:22;2.50;;;1.50;;
54599;SDS011;40500;51.084;16.958;2023-03-14T15:31:02;5.10;;;2.20;;
54599;SDS011;40500;51.084;16.958;2023-03-14T15:33:37;1.40;;;1.30;;
54599;SDS011;40500;51.084;16.958;2023-03-14T15:36:15;1.80;;;1.20;;
54599;SDS011;40500;51.084;16.958;2023-03-14T15:38:51;4.20;;;2.00;;